Time;durP1;ratioP1;P1;durP2;ratioP2;P2;SDS_P1;SDS_P2;PMS_P1;PMS_P2;Temp;Humidity;BMP_temperature;BMP_pressure;BME280_temperature;BME280_humidity;BME280_pressure;Samples;Min_cycle;Max_cycle;Signal;HPM_P1;HPM_P2
2022/10/07 00:00:30;;;;;;;65.70;53.70;;;;;;;8.61;70.56;101908.98;108534;1270;23026;-82
2022/10/07 00:03:25;;;;;;;65.80;55.70;;;;;;;8.60;70.83;101908.98;108883;1273;22629;-82
2022/10/07 00:06:18;;;;;;;61.40;54.80;;;;;;;8.61;70.82;101906.89;108735;1271;21955;-82
2022/10/07 00:09:01;;;;;;;61.70;53.60;;;;;;;8.58;70.80;101910.90;109058;1274;21937;-82
2022/10/07 00:11:50;;;;;;;55.50;49.50;;;;;;;8.52;70.71;101907.10;108851;1274;21923;-83
2022/10/07 00:15:13;;;;;;;;;;;;;;;;;;;;;
2022/10/07 00:18:07;;;;;;;56.70;50.40;;;;;;;8.41;71.32;101907.66;108634;1277;21977;-83
2022/10/07 00:21:17;;;;;;;65.90;58.20;;;;;;;8.44;71.40;101906.79;108232;1282;22002;-82
2022/10/07 00:24:10;;;;;;;61.10;54.60;;;;;;;8.43;71.27;101904.17;107724;1288;22007;-82
2022/10/07 00:26:57;;;;;;;52.30;46.70;;;;;;;8.40;71.22;101903.84;107687;1291;23723;-83
2022/10/07 00:30:01;;;;;;;54.10;46.80;;;;;;;8.34;71.13;101899.17;107904;1289;22027;-83
2022/10/07 00:33:14;;;;;;;53.40;47.60;;;;;;;8.31;71.37;101892.59;108097;1282;23599;-82
2022/10/07 00:36:23;;;;;;;58.10;51.90;;;;;;;8.29;71.57;101891.55;108248;1283;23340;-82
2022/10/07 00:39:36;;;;;;;;;;;;;;;;;;;;;
2022/10/07 00:42:31;;;;;;;;;;;;;;;;;;;;;
2022/10/07 00:45:31;;;;;;;42.20;37.30;;;;;;;8.27;71.74;101890.52;108786;1271;21927;-83
2022/10/07 00:48:50;;;;;;;;;;;;;;;;;;;;;
2022/10/07 00:51:36;;;;;;;49.00;41.00;;;;;;;8.07;71.61;101884.35;108691;1277;23054;-83
2022/10/07 00:54:45;;;;;;;40.10;35.60;;;;;;;8.06;71.94;101884.70;108496;1277;23551;-82
2022/10/07 00:57:29;;;;;;;42.70;37.70;;;;;;;8.07;72.09;101882.08;108402;1279;21954;-82
2022/10/07 01:00:41;;;;;;;44.20;36.60;;;;;;;8.04;72.08;101876.89;108426;1281;21974;-82
2022/10/07 01:03:57;;;;;;;44.20;35.30;;;;;;;8.06;72.27;101874.65;108143;1281;21940;-83
2022/10/07 01:06:55;;;;;;;38.80;32.70;;;;;;;8.07;72.36;101874.30;108162;1282;21951;-83
2022/10/07 01:09:45;;;;;;;;;;;;;;;8.05;72.15;101873.08;108314;1283;24274;-83
2022/10/07 01:13:01;;;;;;;43.60;36.30;;;;;;;7.90;72.18;101868.44;107859;1288;23837;-83
2022/10/07 01:16:34;;;;;;;48.70;42.10;;;;;;;7.76;72.25;101870.20;108110;1287;23060;-83
2022/10/07 01:19:39;;;;;;;45.90;40.50;;;;;;;7.67;72.25;101867.45;108080;1286;21939;-83
2022/10/07 01:22:55;;;;;;;49.70;43.90;;;;;;;7.63;72.52;101868.32;108235;1285;23080;-82
2022/10/07 01:26:19;;;;;;;54.50;48.70;;;;;;;7.64;72.87;101861.91;108183;1286;21990;-81
2022/10/07 01:29:00;;;;;;;66.00;59.30;;;;;;;7.63;72.84;101866.23;108007;1287;21955;-82
2022/10/07 01:32:03;;;;;;;79.30;71.40;;;;;;;7.58;72.87;101868.50;108508;1279;23057;-82
2022/10/07 01:35:32;;;;;;;91.00;82.00;;;;;;;7.54;72.99;101866.42;108473;1279;21943;-82
2022/10/07 01:38:29;;;;;;;;;;;;;;;7.53;73.33;101866.09;108441;1279;21917;-81
2022/10/07 01:41:24;;;;;;;62.70;56.40;;;;;;;7.52;73.67;101861.59;108606;1279;23202;-81
2022/10/07 01:44:22;;;;;;;;;;;;;;;;;;;;;
2022/10/07 01:47:33;;;;;;;62.90;56.70;;;;;;;7.59;73.33;101858.97;108651;1280;21969;-81
2022/10/07 01:50:45;;;;;;;49.80;44.60;;;;;;;7.57;73.22;101860.01;108478;1279;22187;-81
2022/10/07 01:54:04;;;;;;;50.10;44.90;;;;;;;7.52;73.16;101858.98;108337;1278;22338;-81
2022/10/07 01:57:05;;;;;;;49.80;44.70;;;;;;;7.52;73.34;101854.81;108593;1279;21969;-81
2022/10/07 02:00:11;;;;;;;;;;;;;;;;;;;;;
2022/10/07 02:03:42;;;;;;;41.60;37.10;;;;;;;7.46;73.14;101848.41;109102;1271;21937;-82
2022/10/07 02:07:26;;;;;;;47.90;42.90;;;;;;;7.38;73.36;101845.48;108658;1278;22805;-83
2022/10/07 02:10:34;;;;;;;45.50;41.00;;;;;;;7.39;73.64;101844.27;108273;1283;21952;-83
2022/10/07 02:13:57;;;;;;;;;;;;;;;;;;;;;
2022/10/07 02:17:25;;;;;;;58.00;52.10;;;;;;;7.37;73.40;101838.02;108298;1283;22735;-83
2022/10/07 02:20:58;;;;;;;40.80;36.40;;;;;;;7.28;73.41;101840.64;108205;1283;21958;-83
2022/10/07 02:28:20;;;;;;;;;;;;;;;;;;;;;
2022/10/07 02:31:45;;;;;;;;;;;;;;;;;;;;;
2022/10/07 02:35:26;;;;;;;;;;;;;;;;;;;;;
2022/10/07 02:38:38;;;;;;;;;;;;;;;;;;;;;
2022/10/07 02:41:44;;;;;;;33.70;28.50;;;;;;;7.14;73.88;101829.91;106226;1302;21982;-82
2022/10/07 02:48:46;;;;;;;30.60;26.40;;;;;;;7.13;73.74;101828.86;106228;1303;21964;-83
2022/10/07 02:52:01;;;;;;;31.70;26.40;;;;;;;7.10;73.82;101828.52;106053;1303;23611;-81
2022/10/07 02:54:57;;;;;;;35.40;27.40;;;;;;;7.12;73.92;101829.56;106186;1301;24315;-82
2022/10/07 03:01:24;;;;;;;43.30;33.90;;;;;;;7.03;73.61;101820.20;106795;1298;21971;-83
2022/10/07 03:04:34;;;;;;;48.50;33.80;;;;;;;6.97;73.52;101821.76;107403;1287;22859;-82
2022/10/07 03:08:22;;;;;;;;;;;;;;;;;;;;;
2022/10/07 03:12:05;;;;;;;;;;;;;;;;;;;;;
2022/10/07 03:15:24;;;;;;;;;;;;;;;;;;;;;
2022/10/07 03:19:33;;;;;;;34.90;26.30;;;;;;;6.80;73.82;101819.31;108398;1280;21954;-81
2022/10/07 03:22:33;;;;;;;27.80;23.10;;;;;;;6.78;74.07;101821.05;108323;1284;21975;-79
2022/10/07 03:25:55;;;;;;;30.90;23.60;;;;;;;6.83;74.30;101819.16;107479;1288;21974;-79
2022/10/07 03:28:35;;;;;;;32.00;23.00;;;;;;;6.85;73.90;101817.25;107358;1289;23698;-78
2022/10/07 03:31:12;;;;;;;25.70;22.80;;;;;;;6.80;73.70;101815.68;107483;1284;24292;-81
2022/10/07 03:33:59;;;;;;;27.80;22.60;;;;;;;6.73;73.60;101808.42;108210;1282;22811;-81
2022/10/07 03:38:25;;;;;;;;;;;;;;;;;;;;;
2022/10/07 03:41:56;;;;;;;;;;;;;;;;;;;;;
2022/10/07 03:45:57;;;;;;;24.40;21.20;;;;;;;6.50;74.18;101797.82;106964;1297;21955;-82
2022/10/07 03:49:41;;;;;;;22.90;19.90;;;;;;;6.50;74.53;101796.61;106098;1304;21994;-82
2022/10/07 03:53:03;;;;;;;;;;;;;;;;;;;;;
2022/10/07 03:56:40;;;;;;;;;;;;;;;;;;;;;
2022/10/07 04:02:56;;;;;;;26.50;19.50;;;;;;;6.65;74.37;101789.38;105925;1310;21975;-84
2022/10/07 04:05:33;;;;;;;24.50;18.20;;;;;;;6.69;74.27;101791.45;105671;1310;22254;-84
2022/10/07 04:08:17;;;;;;;25.60;19.40;;;;;;;6.72;74.16;101789.02;106105;1301;21977;-83
2022/10/07 04:11:40;;;;;;;22.80;18.90;;;;;;;6.71;74.04;101781.59;106178;1301;23082;-82
2022/10/07 04:15:37;;;;;;;;;;;;;;;;;;;;;
2022/10/07 04:18:40;;;;;;;25.60;19.90;;;;;;;6.55;74.16;101772.92;107141;1292;22377;-84
2022/10/07 04:22:22;;;;;;;26.90;20.00;;;;;;;6.58;74.42;101778.13;107388;1292;22005;-83
2022/10/07 04:29:59;;;;;;;;;;;;;;;;;;;;;
2022/10/07 04:33:47;;;;;;;;;;;;;;;;;;;;;
2022/10/07 04:37:13;;;;;;;;;;;;;;;;;;;;;
2022/10/07 04:40:21;;;;;;;;;;;;;;;;;;;;;
2022/10/07 04:43:32;;;;;;;;;;;;;;;;;;;;;
2022/10/07 04:46:58;;;;;;;;;;;;;;;;;;;;;
2022/10/07 04:50:12;;;;;;;35.00;26.20;;;;;;;6.55;73.83;101765.32;108276;1280;23045;-80
2022/10/07 04:53:07;;;;;;;;;;;;;;;;;;;;;
2022/10/07 04:56:54;;;;;;;29.40;23.10;;;;;;;6.48;73.45;101766.34;107641;1291;21977;-81
2022/10/07 05:00:43;;;;;;;;;;;;;;;;;;;;;
2022/10/07 05:03:56;;;;;;;;;;;;;;;;;;;;;
2022/10/07 05:07:14;;;;;;;;;;;;;;;;;;;;;
2022/10/07 05:09:56;;;;;;;22.30;18.00;;;;;;;6.29;73.40;101762.84;106876;1298;22013;-80
2022/10/07 05:13:25;;;;;;;26.90;21.70;;;;;;;6.23;73.47;101763.34;107427;1288;22053;-79
2022/10/07 05:16:45;;;;;;;;;;;;;;;;;;;;;
2022/10/07 05:20:11;;;;;;;28.20;21.90;;;;;;;6.22;73.51;101761.09;106401;1301;23115;-79
2022/10/07 05:26:24;;;;;;;23.90;21.20;;;;;;;6.28;74.18;101758.17;106075;1298;22120;-79
2022/10/07 05:29:24;;;;;;;24.80;21.00;;;;;;;6.32;74.06;101755.23;106896;1292;23103;-79
2022/10/07 05:32:29;;;;;;;23.70;20.70;;;;;;;6.29;73.67;101755.23;107779;1282;21957;-79
2022/10/07 05:35:25;;;;;;;;;;;;;;;;;;;;;
2022/10/07 05:38:15;;;;;;;26.60;21.60;;;;;;;6.25;73.83;101753.32;107631;1286;21942;-79
2022/10/07 05:41:12;;;;;;;24.40;21.80;;;;;;;6.26;73.93;101755.22;107683;1286;21969;-79
2022/10/07 05:43:47;;;;;;;29.30;21.30;;;;;;;6.28;74.01;101752.80;108348;1271;21923;-79
2022/10/07 05:46:29;;;;;;;24.90;21.90;;;;;;;6.31;74.18;101752.48;108872;1267;23048;-78
2022/10/07 05:49:26;;;;;;;;;;;;;;;;;;;;;
2022/10/07 05:52:44;;;;;;;29.20;24.60;;;;;;;6.32;74.14;101752.98;108932;1271;22360;-80
2022/10/07 05:55:54;;;;;;;30.60;25.50;;;;;;;6.30;74.21;101750.75;108629;1278;22997;-80
2022/10/07 05:58:47;;;;;;;32.90;27.40;;;;;;;6.33;74.43;101749.88;108449;1278;24458;-80
2022/10/07 06:01:24;;;;;;;30.90;23.90;;;;;;;6.36;74.51;101748.49;108447;1277;22544;-80
2022/10/07 06:05:13;;;;;;;27.80;24.40;;;;;;;6.32;74.64;101748.33;108710;1276;23583;-80
2022/10/07 06:08:45;;;;;;;27.50;23.00;;;;;;;6.35;74.98;101752.31;108678;1278;23593;-80
2022/10/07 06:14:56;;;;;;;;;;;;;;;;;;;;;
2022/10/07 06:18:21;;;;;;;30.60;27.10;;;;;;;6.57;75.44;101755.63;108151;1283;21957;-79
2022/10/07 06:21:48;;;;;;;;;;;;;;;;;;;;;
2022/10/07 06:25:01;;;;;;;;;;;;;;;;;;;;;
2022/10/07 06:28:18;;;;;;;;;;;;;;;;;;;;;
2022/10/07 06:31:44;;;;;;;34.50;27.20;;;;;;;6.97;75.91;101750.27;108066;1283;21944;-79
2022/10/07 06:34:20;;;;;;;33.40;27.90;;;;;;;7.09;76.09;101746.64;108034;1282;23613;-79
2022/10/07 06:37:44;;;;;;;30.10;23.10;;;;;;;7.24;76.12;101743.33;107684;1287;23062;-79
2022/10/07 06:41:09;;;;;;;29.30;24.00;;;;;;;7.37;76.07;101742.09;107692;1286;22907;-79
2022/10/07 06:44:56;;;;;;;26.10;22.30;;;;;;;7.56;76.30;101741.86;107381;1291;22080;-79
2022/10/07 06:49:11;;;;;;;24.60;19.70;;;;;;;7.80;76.29;101741.08;106662;1294;22036;-78
2022/10/07 06:52:39;;;;;;;;;;;;;;;;;;;;;
2022/10/07 06:55:56;;;;;;;;;;;;;;;;;;;;;
2022/10/07 06:58:56;;;;;;;30.40;26.20;;;;;;;8.69;76.64;101741.45;106117;1300;23081;-79
2022/10/07 07:01:40;;;;;;;25.20;22.60;;;;;;;9.07;76.47;101746.86;106164;1295;24426;-79
2022/10/07 07:05:03;;;;;;;;;;;;;;;;;;;;;
2022/10/07 07:08:49;;;;;;;25.90;19.40;;;;;;;10.17;77.15;101747.85;107494;1289;23127;-78
2022/10/07 07:12:07;;;;;;;20.20;18.00;;;;;;;10.85;76.53;101747.72;107916;1281;21959;-79
2022/10/07 07:14:54;;;;;;;20.40;18.30;;;;;;;11.49;75.55;101746.22;108051;1281;23915;-80
2022/10/07 07:18:34;;;;;;;20.60;17.80;;;;;;;12.05;73.85;101741.09;107971;1273;22840;-78
2022/10/07 07:25:22;;;;;;;22.50;17.10;;;;;;;13.15;70.63;101732.19;108159;1281;22101;-81
2022/10/07 07:29:07;;;;;;;;;;;;;;;;;;;;;
2022/10/07 07:32:20;;;;;;;;;;;;;;;;;;;;;
2022/10/07 07:35:25;;;;;;;;;;;;;;;;;;;;;
2022/10/07 07:39:49;;;;;;;22.40;20.00;;;;;;;14.89;64.85;101724.52;107892;1288;22454;-81
2022/10/07 07:43:19;;;;;;;20.70;17.50;;;;;;;15.27;63.87;101723.22;107770;1286;21949;-82
2022/10/07 07:46:57;;;;;;;;;;;;;;;;;;;;;
2022/10/07 07:54:12;;;;;;;20.50;16.00;;;;;;;16.16;60.83;101714.67;106600;1300;23689;-83
2022/10/07 07:57:18;;;;;;;21.40;17.20;;;;;;;16.46;60.35;101715.39;106600;1301;22059;-82
2022/10/07 08:00:35;;;;;;;;;;;;;;;;;;;;;
2022/10/07 08:03:48;;;;;;;;;;;;;;;;;;;;;
2022/10/07 08:15:15;;;;;;;;;;;;;;;;;;;;;
2022/10/07 08:18:57;;;;;;;15.30;10.80;;;;;;;17.80;55.64;101707.67;107269;1294;21947;-83
2022/10/07 08:22:12;;;;;;;;;;;;;;;;;;;;;
2022/10/07 08:24:58;;;;;;;16.60;9.80;;;;;;;18.07;53.89;101700.45;107148;1294;21967;-82
2022/10/07 08:28:46;;;;;;;;;;;;;;;;;;;;;
2022/10/07 08:31:55;;;;;;;14.20;9.40;;;;;;;18.05;53.04;101693.48;107257;1298;22293;-84
2022/10/07 08:34:57;;;;;;;11.50;8.00;;;;;;;18.25;53.34;101686.72;105721;1301;1629619;-85
2022/10/07 08:38:01;;;;;;;8.50;7.00;;;;;;;18.36;52.59;101683.22;106771;1301;22941;-77
2022/10/07 08:41:36;;;;;;;12.10;9.10;;;;;;;18.55;52.54;101673.59;106537;1300;21967;-83
2022/10/07 08:45:09;;;;;;;11.00;7.40;;;;;;;18.63;51.87;101669.67;106039;1307;21963;-82
2022/10/07 08:48:02;;;;;;;;;;;;;;;;;;;;;
2022/10/07 08:51:23;;;;;;;8.90;6.70;;;;;;;18.45;50.24;101664.42;105846;1305;21968;-81
2022/10/07 08:54:02;;;;;;;9.90;7.40;;;;;;;18.20;49.71;101663.37;105982;1305;21970;-82
2022/10/07 08:57:00;;;;;;;14.90;7.10;;;;;;;18.03;50.16;101656.76;106238;1303;23115;-82
2022/10/07 09:00:21;;;;;;;10.10;7.40;;;;;;;17.98;50.62;101648.73;106442;1301;22022;-82
2022/10/07 09:04:01;;;;;;;12.00;8.00;;;;;;;17.94;50.91;101644.88;106415;1295;21988;-82
2022/10/07 09:06:49;;;;;;;9.00;6.40;;;;;;;17.83;50.71;101643.82;106702;1298;21968;-83
2022/10/07 09:09:46;;;;;;;12.20;6.90;;;;;;;17.83;50.89;101641.70;106378;1298;21994;-82
2022/10/07 09:13:01;;;;;;;8.40;6.50;;;;;;;17.85;50.12;101640.92;106416;1296;22607;-83
2022/10/07 09:16:28;;;;;;;12.90;6.30;;;;;;;17.81;50.03;101640.92;106677;1301;24384;-81
2022/10/07 09:19:02;;;;;;;9.30;5.20;;;;;;;17.86;50.02;101636.11;106653;1295;23833;-81
2022/10/07 09:22:22;;;;;;;9.80;6.10;;;;;;;17.84;49.32;101630.55;107376;1288;22409;-82
2022/10/07 09:25:32;;;;;;;9.50;5.40;;;;;;;17.77;48.92;101628.95;107693;1289;21945;-81
2022/10/07 09:28:25;;;;;;;7.20;4.80;;;;;;;17.82;48.91;101626.59;107946;1287;21953;-83
2022/10/07 09:31:13;;;;;;;8.40;4.50;;;;;;;17.84;48.76;101623.17;108043;1288;21968;-85
2022/10/07 09:33:48;;;;;;;6.70;4.60;;;;;;;17.86;48.31;101618.84;108128;1288;21976;-83
2022/10/07 09:36:21;;;;;;;6.80;4.10;;;;;;;17.96;48.45;101609.59;108184;1287;22591;-82
2022/10/07 09:38:52;;;;;;;8.70;5.20;;;;;;;18.11;48.40;101606.91;107818;1288;22320;-80
2022/10/07 09:41:37;;;;;;;6.70;4.20;;;;;;;18.27;48.18;101602.39;107886;1288;23019;-81
2022/10/07 09:44:16;;;;;;;5.90;3.40;;;;;;;18.41;47.64;101598.02;108579;1277;23191;-81
2022/10/07 09:46:59;;;;;;;5.70;2.40;;;;;;;18.52;46.45;101595.67;108745;1277;23009;-83
2022/10/07 09:49:42;;;;;;;5.00;2.50;;;;;;;18.64;46.16;101585.02;108610;1279;23029;-80
2022/10/07 09:52:30;;;;;;;11.90;5.20;;;;;;;18.86;46.38;101582.32;108707;1279;23803;-81
2022/10/07 09:55:40;;;;;;;6.30;2.60;;;;;;;19.09;45.50;101578.44;108480;1279;23732;-80
2022/10/07 09:58:38;;;;;;;5.40;2.70;;;;;;;19.28;45.06;101580.92;108535;1277;21961;-83
2022/10/07 10:01:15;;;;;;;4.40;2.40;;;;;;;19.49;44.45;101577.66;108422;1279;21961;-85
2022/10/07 10:03:49;;;;;;;5.70;2.60;;;;;;;19.70;44.22;101571.38;108422;1279;21961;-83
2022/10/07 10:06:22;;;;;;;7.20;2.80;;;;;;;19.88;43.06;101565.78;108392;1279;21999;-86
2022/10/07 10:09:13;;;;;;;3.80;1.80;;;;;;;19.96;42.77;101563.67;108417;1279;21938;-82
2022/10/07 10:12:13;;;;;;;5.70;2.20;;;;;;;20.14;43.03;101559.30;108344;1278;21935;-81
2022/10/07 10:15:06;;;;;;;;;;;;;;;;;;;;;
2022/10/07 10:17:42;;;;;;;5.20;2.20;;;;;;;20.41;42.02;101553.48;108457;1277;21932;-81
2022/10/07 10:20:34;;;;;;;4.00;1.90;;;;;;;20.51;41.97;101547.39;108582;1275;21942;-80
2022/10/07 10:23:33;;;;;;;3.80;2.30;;;;;;;20.54;41.28;101544.73;108191;1278;23078;-80
2022/10/07 10:26:52;;;;;;;5.10;2.00;;;;;;;20.51;41.28;101536.93;108308;1282;21946;-82
2022/10/07 10:30:23;;;;;;;4.90;2.40;;;;;;;20.59;41.54;101531.73;108333;1283;21974;-86
2022/10/07 10:33:41;;;;;;;3.10;2.10;;;;;;;20.60;41.76;101528.98;107531;1291;23210;-81
2022/10/07 10:38:19;;;;;;;;;;;;;;;;;;;;;
2022/10/07 10:42:08;;;;;;;9.40;2.70;;;;;;;20.64;42.12;101513.74;107676;1277;22409;-85
2022/10/07 10:45:16;;;;;;;6.20;3.70;;;;;;;20.79;42.24;101505.20;107546;1292;23706;-85
2022/10/07 10:48:18;;;;;;;6.10;3.50;;;;;;;20.85;41.73;101501.43;107818;1291;21949;-83
2022/10/07 10:51:28;;;;;;;5.80;3.10;;;;;;;20.74;41.39;101490.63;107667;1291;23210;-83
2022/10/07 10:54:29;;;;;;;6.00;3.60;;;;;;;20.74;41.97;101486.61;107858;1290;21965;-83
2022/10/07 10:58:00;;;;;;;6.10;2.30;;;;;;;20.66;41.81;101476.30;107847;1289;23736;-83
2022/10/07 11:01:45;;;;;;;3.80;2.00;;;;;;;20.32;42.01;101470.56;107930;1289;21961;-84
2022/10/07 11:05:05;;;;;;;5.20;2.80;;;;;;;20.12;42.31;101467.02;107754;1284;21949;-84
2022/10/07 11:08:06;;;;;;;7.80;3.80;;;;;;;19.98;42.54;101461.11;107868;1289;21970;-88
2022/10/07 11:11:31;;;;;;;5.30;2.10;;;;;;;19.83;42.96;101453.41;108421;1289;21947;-88
2022/10/07 11:14:55;;;;;;;6.50;3.30;;;;;;;19.69;43.30;101445.86;107975;1283;21970;-88
2022/10/07 11:18:48;;;;;;;9.20;2.80;;;;;;;19.60;43.92;101438.29;108248;1289;21960;-86
2022/10/07 11:21:58;;;;;;;7.40;2.30;;;;;;;19.50;43.92;101429.30;108533;1285;21947;-88
2022/10/07 11:26:10;;;;;;;9.50;3.80;;;;;;;19.34;43.91;101420.52;108545;1286;21963;-86
2022/10/07 11:29:33;;;;;;;5.50;2.50;;;;;;;19.19;44.42;101410.61;107723;1286;23626;-86
2022/10/07 11:36:14;;;;;;;5.70;2.70;;;;;;;19.18;45.13;101395.88;108356;1283;23654;-85
2022/10/07 11:38:52;;;;;;;8.50;2.80;;;;;;;19.18;45.14;101390.02;108057;1286;23103;-86
2022/10/07 11:41:43;;;;;;;5.60;2.40;;;;;;;19.18;45.22;101385.61;108142;1286;21961;-86
2022/10/07 11:44:42;;;;;;;4.00;1.80;;;;;;;19.10;45.00;101377.98;108265;1286;23067;-86
2022/10/07 11:47:42;;;;;;;3.40;2.20;;;;;;;18.94;45.19;101368.08;108102;1286;23215;-81
2022/10/07 11:50:32;;;;;;;4.30;2.20;;;;;;;18.87;45.50;101366.41;107834;1278;23058;-81
2022/10/07 11:53:27;;;;;;;9.00;2.40;;;;;;;18.79;45.81;101358.70;108355;1280;23433;-81
2022/10/07 11:56:25;;;;;;;;;;;;;;;18.79;46.12;101357.14;107966;1286;21948;-81
2022/10/07 11:59:30;;;;;;;8.70;3.50;;;;;;;18.72;46.34;101354.13;108034;1289;21943;-79
2022/10/07 12:02:01;;;;;;;6.80;2.30;;;;;;;18.77;46.13;101344.88;107957;1284;23490;-81
2022/10/07 12:04:39;;;;;;;5.60;2.80;;;;;;;18.80;45.94;101339.63;107842;1284;21943;-81
2022/10/07 12:07:44;;;;;;;7.70;2.90;;;;;;;18.82;45.76;101335.26;108281;1284;21975;-82
2022/10/07 12:11:13;;;;;;;4.70;2.20;;;;;;;18.79;45.69;101331.05;108459;1281;21935;-83
2022/10/07 12:13:57;;;;;;;4.70;2.60;;;;;;;18.74;45.97;101329.69;108526;1276;23094;-82
2022/10/07 12:16:37;;;;;;;4.00;2.50;;;;;;;18.72;46.00;101324.71;108423;1278;21958;-80
2022/10/07 12:19:16;;;;;;;7.40;6.70;;;;;;;18.67;45.88;101317.54;108633;1277;21923;-81
2022/10/07 12:22:07;;;;;;;7.20;2.70;;;;;;;18.68;46.31;101313.45;108575;1279;21943;-83
2022/10/07 12:25:32;;;;;;;6.30;2.10;;;;;;;18.73;46.47;101310.03;108661;1277;22093;-82
2022/10/07 12:28:57;;;;;;;4.40;2.50;;;;;;;18.75;46.56;101306.39;108549;1276;21958;-81
2022/10/07 12:31:51;;;;;;;3.20;2.20;;;;;;;18.71;46.55;101302.70;108671;1278;22018;-80
2022/10/07 12:34:42;;;;;;;6.60;2.10;;;;;;;18.68;46.52;101297.59;108551;1277;23630;-82
2022/10/07 12:38:03;;;;;;;15.60;14.20;;;;;;;18.68;46.57;101294.27;108629;1277;23057;-83
2022/10/07 12:41:10;;;;;;;6.70;2.90;;;;;;;18.68;46.77;101292.51;108316;1285;21941;-81
2022/10/07 12:44:07;;;;;;;7.40;2.50;;;;;;;18.69;46.64;101285.18;108260;1275;22701;-83
2022/10/07 12:46:59;;;;;;;3.10;2.20;;;;;;;18.69;46.85;101283.61;108265;1285;22418;-82
2022/10/07 12:49:59;;;;;;;5.30;2.40;;;;;;;18.75;47.06;101274.66;108170;1285;23688;-83
2022/10/07 12:53:02;;;;;;;;;;;;;;;;;;;;;
2022/10/07 12:56:25;;;;;;;;;;;;;;;;;;;;;
2022/10/07 13:00:15;;;;;;;6.30;2.40;;;;;;;18.95;46.76;101247.73;108428;1282;21965;-83
2022/10/07 13:03:26;;;;;;;4.50;3.10;;;;;;;19.01;46.46;101238.96;107777;1292;22930;-83
2022/10/07 13:06:20;;;;;;;5.10;3.10;;;;;;;19.02;46.31;101239.03;108059;1287;22180;-80
2022/10/07 13:10:10;;;;;;;5.30;2.40;;;;;;;19.04;46.30;101230.14;107951;1284;23879;-83
2022/10/07 13:13:04;;;;;;;7.00;3.20;;;;;;;19.04;46.24;101232.21;107918;1291;22874;-83
2022/10/07 13:16:30;;;;;;;5.80;3.20;;;;;;;19.07;46.28;101227.31;107519;1291;22071;-83
2022/10/07 13:19:39;;;;;;;7.20;2.50;;;;;;;19.10;46.47;101221.29;108368;1283;23590;-81
2022/10/07 13:22:58;;;;;;;6.10;2.90;;;;;;;19.05;46.29;101215.42;108661;1281;22074;-82
2022/10/07 13:26:02;;;;;;;3.40;2.30;;;;;;;19.02;46.28;101211.92;107608;1290;21952;-84
2022/10/07 13:29:37;;;;;;;5.50;3.10;;;;;;;19.05;46.45;101207.89;106954;1292;21957;-82
2022/10/07 13:32:44;;;;;;;3.40;2.60;;;;;;;19.07;46.43;101206.13;106471;1303;22407;-82
2022/10/07 13:35:38;;;;;;;7.70;2.50;;;;;;;19.11;46.18;101200.11;106381;1304;21985;-82
2022/10/07 13:38:27;;;;;;;6.30;4.70;;;;;;;19.16;46.22;101195.36;106260;1303;22067;-82
2022/10/07 13:41:17;;;;;;;5.60;2.90;;;;;;;19.24;46.23;101189.93;106882;1296;21971;-83
2022/10/07 13:44:30;;;;;;;5.00;2.70;;;;;;;19.24;46.26;101186.04;106739;1296;21979;-83
2022/10/07 13:47:19;;;;;;;4.80;2.70;;;;;;;19.27;46.26;101181.14;106714;1300;22377;-82
2022/10/07 13:50:01;;;;;;;6.90;5.20;;;;;;;19.25;46.11;101172.61;106684;1294;23021;-83
2022/10/07 13:52:47;;;;;;;6.00;2.80;;;;;;;19.24;46.08;101168.92;107351;1295;21959;-83
2022/10/07 13:55:45;;;;;;;7.00;3.30;;;;;;;19.22;46.19;101166.95;107091;1295;23128;-83
2022/10/07 13:58:25;;;;;;;7.00;2.80;;;;;;;19.22;46.19;101164.48;107306;1291;22056;-83
2022/10/07 14:00:57;;;;;;;4.60;2.80;;;;;;;19.20;46.18;101159.17;107891;1286;22165;-84
2022/10/07 14:04:09;;;;;;;5.50;2.50;;;;;;;19.20;46.39;101156.86;107165;1288;21950;-84
2022/10/07 14:07:07;;;;;;;4.90;2.60;;;;;;;19.16;46.60;101153.58;107689;1291;22004;-84
2022/10/07 14:09:48;;;;;;;4.50;2.50;;;;;;;19.09;46.64;101150.23;108002;1285;21927;-83
2022/10/07 14:12:42;;;;;;;5.50;2.40;;;;;;;19.06;46.75;101148.16;108027;1278;23138;-83
2022/10/07 14:15:20;;;;;;;5.90;3.30;;;;;;;19.01;46.89;101144.04;108177;1285;21939;-83
2022/10/07 14:17:53;;;;;;;3.50;3.00;;;;;;;19.01;47.08;101140.20;108046;1286;21960;-84
2022/10/07 14:20:22;;;;;;;9.60;8.40;;;;;;;19.01;47.22;101134.38;108056;1286;22063;-83
2022/10/07 14:23:04;;;;;;;8.80;4.60;;;;;;;19.03;47.35;101128.45;108253;1274;23094;-84
2022/10/07 14:25:45;;;;;;;8.60;4.20;;;;;;;19.03;47.37;101120.66;108089;1281;21961;-84
2022/10/07 14:28:17;;;;;;;5.30;3.00;;;;;;;19.00;47.45;101117.29;108525;1278;21959;-83
2022/10/07 14:37:23;;;;;;;5.70;3.70;;;;;;;18.91;47.69;101103.40;108785;1259;23802;-84
2022/10/07 14:39:58;;;;;;;6.20;2.60;;;;;;;18.85;47.77;101097.59;108852;1274;23018;-84
2022/10/07 14:42:34;;;;;;;5.40;3.50;;;;;;;18.83;47.75;101091.88;108791;1274;21981;-84
2022/10/07 14:45:06;;;;;;;5.00;2.90;;;;;;;18.83;47.82;101088.38;108869;1272;23018;-84
2022/10/07 14:47:40;;;;;;;6.60;4.30;;;;;;;18.82;47.85;101084.92;108876;1274;21955;-83
2022/10/07 14:50:11;;;;;;;8.70;3.90;;;;;;;18.81;47.96;101078.80;108816;1274;22775;-83
2022/10/07 14:52:50;;;;;;;8.00;3.90;;;;;;;18.80;48.03;101072.81;108906;1274;21940;-84
2022/10/07 14:55:26;;;;;;;6.60;3.50;;;;;;;18.80;48.17;101067.90;108888;1271;23576;-83
2022/10/07 14:57:55;;;;;;;6.10;3.20;;;;;;;18.77;48.34;101063.63;108861;1274;23700;-83
2022/10/07 15:00:28;;;;;;;8.10;3.10;;;;;;;18.74;48.55;101062.04;108391;1280;22307;-83
2022/10/07 15:02:57;;;;;;;4.90;3.10;;;;;;;18.70;48.70;101055.77;108435;1279;21942;-84
2022/10/07 15:05:32;;;;;;;5.90;2.70;;;;;;;18.66;48.93;101055.84;108637;1277;21969;-84
2022/10/07 15:08:02;;;;;;;6.90;2.90;;;;;;;18.61;49.16;101056.68;108617;1279;21952;-83
2022/10/07 15:10:32;;;;;;;6.10;3.60;;;;;;;18.57;49.42;101054.09;108421;1279;23831;-84
2022/10/07 15:13:02;;;;;;;7.70;4.60;;;;;;;18.55;49.63;101051.76;108500;1272;21951;-83
2022/10/07 15:15:45;;;;;;;13.60;3.80;;;;;;;18.52;49.74;101049.98;108535;1279;21994;-85
2022/10/07 15:18:14;;;;;;;9.30;3.80;;;;;;;18.48;49.91;101046.72;108531;1274;21982;-83
2022/10/07 15:20:43;;;;;;;8.80;3.90;;;;;;;18.44;50.23;101045.21;108794;1273;21924;-82
2022/10/07 15:23:13;;;;;;;7.10;3.90;;;;;;;18.41;50.48;101047.30;108859;1274;21948;-83
2022/10/07 15:25:44;;;;;;;5.30;3.90;;;;;;;18.37;50.61;101048.25;109004;1274;23605;-83
2022/10/07 15:28:23;;;;;;;5.60;3.80;;;;;;;18.32;50.89;101044.87;108849;1274;23689;-83
2022/10/07 15:31:03;;;;;;;5.10;4.50;;;;;;;18.29;51.15;101046.09;108491;1277;21977;-84
2022/10/07 15:33:35;;;;;;;8.10;5.30;;;;;;;18.26;51.29;101041.34;108395;1277;22273;-84
2022/10/07 15:36:06;;;;;;;11.40;4.80;;;;;;;18.24;51.40;101040.41;108660;1277;23687;-84
2022/10/07 15:38:40;;;;;;;8.90;5.60;;;;;;;18.19;51.52;101035.02;108438;1277;21930;-83
2022/10/07 15:41:27;;;;;;;10.50;5.40;;;;;;;18.17;51.74;101030.39;108780;1277;22342;-81
2022/10/07 15:43:59;;;;;;;17.80;15.80;;;;;;;18.12;52.02;101028.74;108592;1277;23111;-80
2022/10/07 15:46:28;;;;;;;14.20;7.40;;;;;;;18.07;52.16;101020.60;108253;1281;23058;-80
2022/10/07 15:48:59;;;;;;;12.10;6.30;;;;;;;18.05;52.34;101024.78;108260;1277;21923;-82
2022/10/07 15:51:30;;;;;;;10.60;6.50;;;;;;;18.01;52.51;101022.52;108519;1278;23053;-81
2022/10/07 15:53:59;;;;;;;11.70;7.40;;;;;;;17.98;52.76;101021.30;108738;1277;21960;-82
2022/10/07 15:56:28;;;;;;;11.00;8.30;;;;;;;17.96;53.00;101021.06;108074;1283;22033;-80
2022/10/07 15:59:00;;;;;;;;;;;;;;;17.93;53.26;101018.75;108141;1281;21968;-80
2022/10/07 16:01:32;;;;;;;18.80;12.20;;;;;;;17.81;53.55;101015.04;108278;1281;21930;-80
2022/10/07 16:04:02;;;;;;;14.30;11.70;;;;;;;17.77;53.57;101012.95;108169;1278;23075;-81
2022/10/07 16:06:34;;;;;;;22.70;15.00;;;;;;;17.75;53.68;101014.88;108425;1278;21928;-80
2022/10/07 16:09:04;;;;;;;22.80;14.60;;;;;;;17.69;53.84;101014.27;108566;1278;23670;-81
2022/10/07 16:11:33;;;;;;;25.40;13.40;;;;;;;17.63;54.15;101015.39;108858;1278;21949;-80
2022/10/07 16:14:05;;;;;;;20.10;13.10;;;;;;;17.59;54.47;101013.30;108704;1271;23620;-80
2022/10/07 16:16:34;;;;;;;22.70;15.40;;;;;;;17.57;54.70;101010.55;108610;1272;21936;-80
2022/10/07 16:19:03;;;;;;;31.30;19.00;;;;;;;17.54;54.91;101008.49;108673;1271;23048;-80